Time;durP1;ratioP1;P1;durP2;ratioP2;P2;SDS_P1;SDS_P2;PMS_P1;PMS_P2;Temp;Humidity;BMP_temperature;BMP_pressure;BME280_temperature;BME280_humidity;BME280_pressure;Samples;Min_cycle;Max_cycle;Signal;HPM_P1;HPM_P2
2022/01/16 00:04:08;;;;;;;34.20;14.82;;;4.20;86.50;;;;;;5075174;28;20025;-80
2022/01/16 00:06:38;;;;;;;;;;;4.20;87.30;;;;;;5084542;28;20576;-80
2022/01/16 00:09:06;;;;;;;40.75;15.15;;;4.20;87.80;;;;;;5095215;28;19904;-80
2022/01/16 00:11:32;;;;;;;38.72;16.10;;;4.20;87.40;;;;;;5082613;28;20111;-80
2022/01/16 00:13:58;;;;;;;31.50;14.00;;;4.20;87.60;;;;;;5075127;28;20031;-80
2022/01/16 00:16:24;;;;;;;34.47;15.27;;;4.20;87.60;;;;;;5074706;28;20502;-80
2022/01/16 00:18:50;;;;;;;40.78;15.77;;;4.10;88.00;;;;;;5095028;28;20492;-80
2022/01/16 00:21:21;;;;;;;39.92;15.43;;;4.20;88.40;;;;;;5093393;28;20111;-80
2022/01/16 00:23:46;;;;;;;38.00;16.92;;;4.30;87.90;;;;;;5093597;28;20080;-80
2022/01/16 00:26:13;;;;;;;41.47;16.27;;;4.30;87.90;;;;;;5078476;28;20525;-80
2022/01/16 00:28:39;;;;;;;40.90;16.83;;;4.40;87.80;;;;;;5075961;28;20033;-80
2022/01/16 00:31:04;;;;;;;37.80;16.05;;;4.50;87.50;;;;;;5078705;28;20047;-80
2022/01/16 00:33:30;;;;;;;43.17;18.40;;;4.60;86.80;;;;;;5079337;28;20151;-80
2022/01/16 00:35:56;;;;;;;36.55;15.43;;;4.50;86.70;;;;;;5098996;28;20439;-80
2022/01/16 00:38:22;;;;;;;36.83;15.95;;;4.30;87.10;;;;;;5087300;28;21476;-81
2022/01/16 00:40:47;;;;;;;42.03;16.40;;;4.30;87.70;;;;;;5078367;28;20039;-80
2022/01/16 00:43:16;;;;;;;44.22;17.02;;;4.20;87.80;;;;;;5077090;28;20029;-80
2022/01/16 00:45:43;;;;;;;42.10;18.02;;;4.30;87.80;;;;;;5078504;28;20025;-81
2022/01/16 00:48:09;;;;;;;37.97;15.10;;;4.40;88.00;;;;;;5094521;28;20027;-80
2022/01/16 00:50:35;;;;;;;33.75;14.25;;;4.40;87.40;;;;;;5098480;28;20035;-80
2022/01/16 00:53:02;;;;;;;35.92;15.13;;;4.50;87.60;;;;;;5098604;28;20028;-80
2022/01/16 00:55:28;;;;;;;32.33;13.98;;;4.60;87.30;;;;;;5087060;28;20036;-81
2022/01/16 00:57:54;;;;;;;35.15;14.70;;;4.60;87.00;;;;;;5078096;28;20538;-80
2022/01/16 01:00:22;;;;;;;32.30;13.63;;;4.60;87.00;;;;;;5077950;28;20021;-80
2022/01/16 01:02:48;;;;;;;34.15;13.02;;;4.50;86.70;;;;;;5094439;28;20055;-80
2022/01/16 01:05:13;;;;;;;32.00;12.48;;;4.50;87.10;;;;;;5098253;28;20458;-80
2022/01/16 01:07:40;;;;;;;34.47;12.50;;;4.50;87.20;;;;;;5095012;28;20072;-80
2022/01/16 01:10:07;;;;;;;29.30;12.05;;;4.50;87.10;;;;;;5078424;28;20032;-81
2022/01/16 01:12:51;;;;;;;22.08;11.25;;;4.60;87.00;;;;;;5076977;28;20033;-80
2022/01/16 01:15:25;;;;;;;28.33;12.35;;;4.60;86.80;;;;;;5079513;28;20035;-80
2022/01/16 01:17:51;;;;;;;23.92;11.68;;;4.60;86.90;;;;;;5097949;28;20481;-81
2022/01/16 01:20:19;;;;;;;23.50;10.40;;;4.60;86.70;;;;;;5097965;28;20029;-80
2022/01/16 01:22:51;;;;;;;25.33;11.93;;;4.60;86.40;;;;;;5098153;28;20367;-80
2022/01/16 01:25:18;;;;;;;29.85;11.73;;;4.60;86.40;;;;;;5096811;28;20031;-80
2022/01/16 01:27:44;;;;;;;28.05;11.95;;;4.60;86.30;;;;;;5096668;28;20035;-80
2022/01/16 01:30:17;;;;;;;24.15;10.95;;;4.40;86.40;;;;;;5098085;28;20030;-80
2022/01/16 01:32:44;;;;;;;25.63;11.45;;;4.50;86.90;;;;;;5098421;28;20046;-80
2022/01/16 01:35:12;;;;;;;29.20;11.43;;;4.40;86.50;;;;;;5096263;28;20071;-80
2022/01/16 01:37:39;;;;;;;26.80;10.75;;;4.40;87.10;;;;;;5097513;28;20494;-80
2022/01/16 01:40:09;;;;;;;28.40;11.75;;;4.50;87.00;;;;;;5080730;28;20032;-80
2022/01/16 01:42:43;;;;;;;26.02;11.70;;;4.50;87.00;;;;;;5077255;28;20017;-80
2022/01/16 01:53:23;;;;;;;28.65;11.95;;;4.60;86.80;;;;;;5096170;28;20039;-81
2022/01/16 01:55:49;;;;;;;35.42;12.82;;;4.70;86.60;;;;;;5097162;28;20036;-80
2022/01/16 01:58:14;;;;;;;28.40;11.85;;;4.70;86.40;;;;;;5097700;28;20066;-81
2022/01/16 02:00:42;;;;;;;30.27;12.48;;;4.70;86.20;;;;;;5095951;28;20050;-80
2022/01/16 02:05:44;;;;;;;31.90;13.23;;;4.60;87.20;;;;;;5080093;28;20086;-80
2022/01/16 02:08:17;;;;;;;33.40;11.43;;;4.70;87.00;;;;;;5076989;28;20052;-80
2022/01/16 02:10:43;;;;;;;26.60;12.40;;;4.70;86.60;;;;;;5075577;28;20044;-80
2022/01/16 02:13:19;;;;;;;26.55;10.88;;;4.70;86.60;;;;;;5095347;28;20123;-80
2022/01/16 02:32:12;;;;;;;26.65;11.80;;;4.70;87.10;;;;;;5097180;28;20035;-80
2022/01/16 02:34:43;;;;;;;30.90;10.35;;;4.70;86.80;;;;;;5096667;28;20154;-80
2022/01/16 02:37:12;;;;;;;25.45;11.52;;;4.80;86.90;;;;;;5096586;28;20058;-80
2022/01/16 02:39:41;;;;;;;32.63;13.15;;;4.70;86.80;;;;;;5095916;28;20026;-80
2022/01/16 02:42:11;;;;;;;29.00;12.75;;;4.80;86.80;;;;;;5090294;28;20020;-80
2022/01/16 02:44:49;;;;;;;33.03;13.73;;;4.80;86.70;;;;;;5096550;28;20020;-80
2022/01/16 02:47:17;;;;;;;28.70;11.50;;;4.90;86.80;;;;;;5096457;28;20110;-80
2022/01/16 02:49:48;;;;;;;30.58;12.27;;;4.80;86.60;;;;;;5096269;28;20070;-80
2022/01/16 02:52:16;;;;;;;;;;;4.70;86.80;;;;;;5092663;28;20038;-80
2022/01/16 02:54:44;;;;;;;31.42;13.65;;;4.70;86.90;;;;;;5095091;28;19904;-81
2022/01/16 02:57:12;;;;;;;24.10;9.38;;;4.70;87.10;;;;;;5094788;28;20024;-80
2022/01/16 02:59:39;;;;;;;23.02;9.93;;;4.70;87.50;;;;;;5090601;28;20077;-80
2022/01/16 03:02:05;;;;;;;23.77;10.15;;;4.70;87.10;;;;;;5074559;28;20062;-80
2022/01/16 03:04:32;;;;;;;23.35;10.65;;;4.70;87.30;;;;;;5075760;28;20031;-80
2022/01/16 03:07:03;;;;;;;26.70;11.75;;;4.70;86.90;;;;;;5093277;28;20169;-80
2022/01/16 03:09:40;;;;;;;28.15;10.00;;;4.70;87.40;;;;;;5095806;28;20509;-80
2022/01/16 03:12:09;;;;;;;23.67;9.73;;;4.80;86.90;;;;;;5094759;28;20032;-80
2022/01/16 03:14:35;;;;;;;23.88;10.00;;;4.80;87.20;;;;;;5085630;28;20075;-80
2022/01/16 03:17:01;;;;;;;21.08;9.52;;;4.80;86.60;;;;;;5075651;28;20081;-80
2022/01/16 03:22:14;;;;;;;21.67;8.80;;;4.80;86.90;;;;;;5093178;28;20035;-80
2022/01/16 03:24:43;;;;;;;20.58;8.63;;;4.80;87.20;;;;;;5094743;28;20115;-80
2022/01/16 03:27:19;;;;;;;20.98;8.93;;;4.80;86.60;;;;;;5092013;28;20119;-80
2022/01/16 03:29:51;;;;;;;17.67;8.18;;;4.60;87.10;;;;;;5094458;28;20032;-80
2022/01/16 03:32:20;;;;;;;16.20;7.93;;;4.50;87.20;;;;;;5092139;28;20059;-80
2022/01/16 03:34:46;;;;;;;15.50;7.28;;;4.50;87.90;;;;;;5093047;28;20038;-80
2022/01/16 03:37:12;;;;;;;27.08;9.98;;;4.30;87.70;;;;;;5075432;28;20029;-80
2022/01/16 03:39:38;;;;;;;21.92;8.50;;;4.30;88.50;;;;;;5073954;28;20020;-80
2022/01/16 03:42:05;;;;;;;25.33;9.73;;;4.40;88.90;;;;;;5073878;28;20380;-80
2022/01/16 03:44:31;;;;;;;27.40;9.25;;;4.50;88.50;;;;;;5075642;28;20080;-80
2022/01/16 03:46:57;;;;;;;20.00;10.30;;;4.40;88.50;;;;;;5074780;28;20028;-80
2022/01/16 03:49:27;;;;;;;20.38;9.23;;;4.40;88.70;;;;;;5075263;28;20028;-80
2022/01/16 03:51:54;;;;;;;20.08;9.02;;;4.40;88.30;;;;;;5090700;28;20120;-80
2022/01/16 03:54:23;;;;;;;23.08;8.27;;;4.30;89.10;;;;;;5095338;28;20035;-80
2022/01/16 03:56:50;;;;;;;19.53;9.50;;;4.30;88.90;;;;;;5095350;28;20024;-80
2022/01/16 03:59:17;;;;;;;16.92;8.32;;;4.40;89.10;;;;;;5086791;28;20055;-80
2022/01/16 04:01:43;;;;;;;20.65;9.25;;;4.40;89.20;;;;;;5075140;28;20025;-80
2022/01/16 04:04:09;;;;;;;21.23;8.57;;;4.50;89.10;;;;;;5073270;28;20056;-80
2022/01/16 04:06:35;;;;;;;23.63;8.30;;;4.40;88.50;;;;;;5074649;28;20049;-80
2022/01/16 04:09:02;;;;;;;21.38;8.45;;;4.60;89.40;;;;;;5091147;28;20489;-80
2022/01/16 04:11:29;;;;;;;18.98;7.72;;;4.60;88.70;;;;;;5095255;28;20016;-80
2022/01/16 04:14:05;;;;;;;18.90;8.75;;;4.70;88.50;;;;;;5095136;28;20038;-80
2022/01/16 04:16:31;;;;;;;15.15;7.03;;;4.70;88.20;;;;;;5095051;28;20027;-80
2022/01/16 04:18:57;;;;;;;21.08;8.40;;;4.40;88.40;;;;;;5093350;28;20028;-80
2022/01/16 04:21:25;;;;;;;20.02;8.63;;;4.50;89.20;;;;;;5095161;28;20017;-80
2022/01/16 04:23:52;;;;;;;13.52;6.65;;;4.50;89.00;;;;;;5094846;28;20082;-80
2022/01/16 04:26:19;;;;;;;17.45;7.43;;;4.50;88.60;;;;;;5091797;28;20547;-80
2022/01/16 04:28:48;;;;;;;20.70;8.10;;;4.50;88.80;;;;;;5095146;28;20032;-80
2022/01/16 04:31:15;;;;;;;21.58;8.45;;;4.50;89.10;;;;;;5091584;28;20032;-80
2022/01/16 04:33:41;;;;;;;15.80;7.25;;;4.60;89.00;;;;;;5094896;28;20024;-80
2022/01/16 04:36:08;;;;;;;17.42;7.75;;;4.70;88.80;;;;;;5093649;28;20024;-80
2022/01/16 04:38:36;;;;;;;18.77;8.68;;;4.60;88.60;;;;;;5094768;28;20111;-80
2022/01/16 04:43:47;;;;;;;19.50;8.63;;;4.80;88.30;;;;;;5076401;28;20047;-80
2022/01/16 04:46:15;;;;;;;18.40;8.15;;;4.80;88.20;;;;;;5073553;28;20093;-80
2022/01/16 04:48:40;;;;;;;18.52;7.53;;;4.80;88.10;;;;;;5079592;28;20024;-80
2022/01/16 04:51:06;;;;;;;18.38;7.93;;;4.70;88.10;;;;;;5093524;28;20043;-80
2022/01/16 04:53:34;;;;;;;19.45;7.60;;;4.70;88.30;;;;;;5091446;28;20477;-80
2022/01/16 04:55:59;;;;;;;20.33;7.65;;;4.70;88.60;;;;;;5095019;28;20113;-80
2022/01/16 04:58:25;;;;;;;24.85;8.07;;;4.70;88.50;;;;;;5094640;28;20028;-81
2022/01/16 05:00:51;;;;;;;21.73;9.07;;;4.80;88.20;;;;;;5092982;28;20111;-80
2022/01/16 05:03:16;;;;;;;16.90;8.88;;;4.80;88.50;;;;;;5094696;28;20038;-80
2022/01/16 05:05:42;;;;;;;19.08;7.68;;;4.80;87.90;;;;;;5093189;28;20039;-81
2022/01/16 05:08:08;;;;;;;22.58;8.20;;;4.80;88.00;;;;;;5094564;28;20506;-80
2022/01/16 05:10:36;;;;;;;17.38;8.02;;;4.60;88.10;;;;;;5074054;28;20513;-80
2022/01/16 05:13:27;;;;;;;29.50;9.00;;;4.70;88.70;;;;;;5074450;28;20032;-81
2022/01/16 05:18:32;;;;;;;13.80;7.43;;;4.70;88.30;;;;;;5097945;28;20054;-80
2022/01/16 05:20:58;;;;;;;20.77;7.90;;;4.70;88.80;;;;;;5077913;28;20088;-80
2022/01/16 05:23:24;;;;;;;26.25;7.68;;;4.80;88.60;;;;;;5077405;28;20390;-80
2022/01/16 05:25:50;;;;;;;16.38;7.30;;;4.80;88.80;;;;;;5096776;28;20107;-80
2022/01/16 05:28:15;;;;;;;23.77;8.95;;;4.90;88.30;;;;;;5090911;28;20024;-80
2022/01/16 05:30:41;;;;;;;22.02;7.00;;;4.90;88.20;;;;;;5076464;28;20036;-80
2022/01/16 05:33:08;;;;;;;21.42;7.78;;;4.90;88.00;;;;;;5079012;28;20033;-80
2022/01/16 05:35:34;;;;;;;20.90;8.32;;;4.90;87.90;;;;;;5096385;28;20093;-80
2022/01/16 05:38:00;;;;;;;25.27;8.45;;;4.90;88.30;;;;;;5091042;28;20024;-80
2022/01/16 05:40:25;;;;;;;21.10;8.10;;;4.90;87.90;;;;;;5077765;28;20461;-80
2022/01/16 05:42:51;;;;;;;18.42;7.57;;;5.00;88.30;;;;;;5084105;28;20398;-80
2022/01/16 05:45:17;;;;;;;21.90;8.90;;;5.00;87.60;;;;;;5077826;28;20031;-80
2022/01/16 05:47:42;;;;;;;16.20;8.30;;;5.00;87.90;;;;;;5076103;28;20024;-80
2022/01/16 05:50:11;;;;;;;20.02;8.13;;;4.90;88.10;;;;;;5079708;28;20108;-80
2022/01/16 05:52:36;;;;;;;18.42;6.97;;;4.90;87.70;;;;;;5097703;28;20561;-80
2022/01/16 05:55:03;;;;;;;17.33;7.40;;;4.90;87.90;;;;;;5097293;28;20024;-80
2022/01/16 05:57:28;;;;;;;16.77;7.80;;;4.80;88.40;;;;;;5096275;28;20032;-80
2022/01/16 05:59:55;;;;;;;19.63;7.80;;;4.80;88.20;;;;;;5084218;28;20047;-80
2022/01/16 06:02:21;;;;;;;16.25;7.38;;;4.70;88.30;;;;;;5075297;28;20494;-80
2022/01/16 06:04:47;;;;;;;13.02;7.13;;;4.70;88.70;;;;;;5076786;28;20085;-80
2022/01/16 06:07:15;;;;;;;19.67;6.22;;;4.70;88.80;;;;;;5088788;28;20049;-80
2022/01/16 06:09:41;;;;;;;12.95;6.43;;;4.60;88.20;;;;;;5076985;28;20082;-80
2022/01/16 06:12:07;;;;;;;10.77;4.60;;;4.60;88.50;;;;;;5075117;28;20036;-80
2022/01/16 06:14:33;;;;;;;19.45;7.00;;;4.60;88.80;;;;;;5083206;28;20505;-80
2022/01/16 06:16:59;;;;;;;20.65;7.20;;;4.50;89.00;;;;;;5095939;28;20117;-80
2022/01/16 06:19:24;;;;;;;17.27;5.93;;;4.40;89.30;;;;;;5095795;28;20036;-80
2022/01/16 06:21:50;;;;;;;14.70;5.25;;;4.30;89.30;;;;;;5076835;28;20029;-80
2022/01/16 06:24:16;;;;;;;15.93;5.78;;;4.30;89.80;;;;;;5076634;28;20020;-80
2022/01/16 06:26:42;;;;;;;11.68;5.55;;;4.20;89.90;;;;;;5094845;28;20549;-80
2022/01/16 06:29:07;;;;;;;13.85;5.75;;;4.20;90.10;;;;;;5096733;28;20095;-80
2022/01/16 06:31:33;;;;;;;12.45;6.05;;;4.20;90.40;;;;;;5095586;28;20059;-80
2022/01/16 06:34:00;;;;;;;16.48;7.38;;;4.20;90.20;;;;;;5095030;28;20509;-80
2022/01/16 06:36:26;;;;;;;9.63;5.88;;;4.20;90.10;;;;;;5095703;28;20024;-80
2022/01/16 06:38:54;;;;;;;13.63;5.22;;;4.20;90.20;;;;;;5075011;28;20502;-80
2022/01/16 06:41:20;;;;;;;13.98;5.63;;;4.20;90.00;;;;;;5083836;28;20051;-80
2022/01/16 06:43:45;;;;;;;18.30;6.85;;;4.20;90.10;;;;;;5076643;28;20059;-80
2022/01/16 06:46:11;;;;;;;29.98;7.07;;;4.20;90.40;;;;;;5076354;28;20777;-80
2022/01/16 06:48:37;;;;;;;14.75;6.47;;;4.20;89.90;;;;;;5071496;28;20060;-80
2022/01/16 06:51:03;;;;;;;19.33;6.18;;;4.30;90.00;;;;;;5088116;28;20532;-80
2022/01/16 06:53:29;;;;;;;19.38;7.60;;;4.20;90.10;;;;;;5056236;28;20059;-80
2022/01/16 06:55:55;;;;;;;22.27;8.05;;;4.30;90.30;;;;;;5054647;28;20024;-80
2022/01/16 06:58:21;;;;;;;15.60;5.75;;;4.30;90.10;;;;;;5064812;28;20032;-80
2022/01/16 07:00:47;;;;;;;17.23;7.50;;;4.30;90.10;;;;;;5076326;28;20059;-80
2022/01/16 07:03:14;;;;;;;19.17;6.65;;;4.30;90.00;;;;;;5074482;28;20033;-80
2022/01/16 07:05:43;;;;;;;22.35;6.88;;;4.20;89.80;;;;;;5087902;28;20126;-80
2022/01/16 07:08:09;;;;;;;11.98;6.07;;;4.20;90.00;;;;;;5094410;28;20059;-80
2022/01/16 07:10:36;;;;;;;14.65;6.43;;;4.20;89.70;;;;;;5093144;28;20048;-80
2022/01/16 07:13:02;;;;;;;17.80;7.18;;;4.20;89.80;;;;;;5079435;28;20034;-80
2022/01/16 07:15:30;;;;;;;16.05;6.18;;;4.20;90.00;;;;;;5095895;28;20020;-80
2022/01/16 07:17:56;;;;;;;24.35;6.60;;;4.20;90.10;;;;;;5095753;28;20028;-80
2022/01/16 07:20:22;;;;;;;19.83;7.15;;;4.20;89.80;;;;;;5088208;28;20070;-80
2022/01/16 07:22:47;;;;;;;10.10;5.72;;;4.40;90.40;;;;;;5074597;28;20123;-80
2022/01/16 07:25:14;;;;;;;13.68;6.35;;;4.30;89.60;;;;;;5075192;28;20044;-80
2022/01/16 07:27:40;;;;;;;15.13;5.72;;;4.40;89.80;;;;;;5074097;28;20398;-79
2022/01/16 07:30:07;;;;;;;12.82;6.30;;;4.40;89.50;;;;;;5084143;28;20043;-83
2022/01/16 07:32:35;;;;;;;15.00;7.57;;;4.60;89.50;;;;;;5094338;28;20028;-82
2022/01/16 07:35:01;;;;;;;17.23;7.00;;;4.70;89.20;;;;;;5073881;28;20032;-85
2022/01/16 07:37:26;;;;;;;16.23;6.40;;;4.70;88.80;;;;;;5075199;28;20086;-91
2022/01/16 07:39:52;;;;;;;16.35;6.78;;;4.70;88.40;;;;;;5076833;28;20039;-89
2022/01/16 07:42:18;;;;;;;15.52;7.03;;;4.60;88.90;;;;;;5074757;28;20046;-84
2022/01/16 07:44:43;;;;;;;15.77;6.68;;;4.70;89.10;;;;;;5077417;28;20461;-92
2022/01/16 07:47:09;;;;;;;13.18;6.25;;;4.60;89.00;;;;;;5077627;28;20107;-92
2022/01/16 07:49:35;;;;;;;16.58;7.95;;;4.60;89.20;;;;;;5072955;28;20116;-93
2022/01/16 07:52:00;;;;;;;13.48;6.20;;;4.60;89.10;;;;;;5090418;28;20119;-92
2022/01/16 07:54:26;;;;;;;17.42;6.70;;;4.50;89.00;;;;;;5062667;28;20100;-86
2022/01/16 07:56:52;;;;;;;10.77;5.63;;;4.30;89.30;;;;;;5075370;28;20024;-88
2022/01/16 07:59:17;;;;;;;12.50;6.78;;;4.20;89.70;;;;;;5074762;28;20024;-83
2022/01/16 08:01:44;;;;;;;17.15;6.18;;;4.20;90.50;;;;;;5076614;28;20083;-92
2022/01/16 11:59:40;;;;;;;22.08;8.98;;;5.20;94.10;;;;;;5054452;28;20405;-76
2022/01/16 12:02:08;;;;;;;23.63;10.85;;;5.30;93.90;;;;;;5050177;28;20033;-77
2022/01/16 12:04:34;;;;;;;25.40;11.18;;;5.70;93.50;;;;;;5062296;28;20049;-77
2022/01/16 12:07:12;;;;;;;20.58;10.45;;;6.00;92.90;;;;;;5064296;28;20060;-75
2022/01/16 12:12:23;;;;;;;27.58;13.35;;;6.40;91.20;;;;;;5049984;28;20026;-77
2022/01/16 12:15:05;;;;;;;34.53;16.52;;;6.60;91.00;;;;;;5042924;28;20161;-75
2022/01/16 12:17:44;;;;;;;41.60;19.08;;;6.80;90.80;;;;;;5048803;28;20045;-75
2022/01/16 12:22:57;;;;;;;29.50;14.23;;;7.20;89.60;;;;;;5049122;28;20040;-75
2022/01/16 12:25:48;;;;;;;26.08;13.13;;;7.30;89.20;;;;;;5050755;28;20033;-76
2022/01/16 12:28:22;;;;;;;26.75;12.55;;;7.40;88.80;;;;;;5024383;28;20527;-78
2022/01/16 12:30:55;;;;;;;25.73;11.85;;;7.60;88.60;;;;;;5049700;28;20092;-77
2022/01/16 12:33:26;;;;;;;27.23;13.43;;;7.60;87.60;;;;;;5051070;28;20634;-77
2022/01/16 12:35:52;;;;;;;24.23;11.73;;;7.70;87.80;;;;;;5051321;28;20048;-82
2022/01/16 12:38:19;;;;;;;21.70;11.20;;;7.70;87.50;;;;;;5048375;28;20029;-76
2022/01/16 12:40:47;;;;;;;21.50;10.48;;;7.70;87.10;;;;;;5050904;28;20491;-76
2022/01/16 12:43:27;;;;;;;22.95;10.27;;;7.70;87.40;;;;;;5051185;28;20429;-75
2022/01/16 12:45:54;;;;;;;26.25;12.15;;;7.70;87.10;;;;;;5045520;28;20112;-74
2022/01/16 12:48:21;;;;;;;25.98;13.23;;;7.80;87.30;;;;;;5049833;28;20025;-74
2022/01/16 12:50:47;;;;;;;30.13;12.52;;;7.80;87.40;;;;;;5051724;28;20090;-75
2022/01/16 12:53:13;;;;;;;30.50;12.30;;;7.80;87.30;;;;;;5050439;28;20104;-74
2022/01/16 12:55:39;;;;;;;22.95;12.25;;;7.90;87.10;;;;;;5051537;28;20063;-74
2022/01/16 12:58:22;;;;;;;23.70;12.35;;;7.80;86.90;;;;;;5050403;28;20777;-75
2022/01/16 13:01:00;;;;;;;19.75;11.32;;;7.80;87.20;;;;;;5051296;28;20025;-77
2022/01/16 13:03:27;;;;;;;21.58;11.52;;;7.90;87.20;;;;;;5047319;28;20525;-74
2022/01/16 13:06:15;;;;;;;24.80;12.07;;;7.90;87.30;;;;;;5050022;28;20089;-75
2022/01/16 13:08:56;;;;;;;19.35;10.77;;;8.00;87.20;;;;;;5048009;28;20025;-78
2022/01/16 13:11:23;;;;;;;26.95;12.88;;;8.10;87.30;;;;;;5034622;28;20483;-82
2022/01/16 13:13:49;;;;;;;22.63;10.40;;;8.00;87.20;;;;;;5036473;28;20029;-73
2022/01/16 13:16:26;;;;;;;23.58;12.13;;;8.00;87.20;;;;;;5034583;28;20037;-73
2022/01/16 13:19:11;;;;;;;28.08;11.57;;;8.00;87.20;;;;;;5031901;28;20029;-74
2022/01/16 13:24:33;;;;;;;29.92;12.13;;;8.00;87.40;;;;;;5034764;28;20036;-74
2022/01/16 13:27:00;;;;;;;24.73;12.35;;;8.20;87.30;;;;;;5034768;28;20468;-74
2022/01/16 13:29:26;;;;;;;25.73;12.52;;;8.20;87.00;;;;;;5034547;28;20467;-73
2022/01/16 13:31:52;;;;;;;23.85;12.05;;;8.20;87.00;;;;;;5034761;28;20115;-74
2022/01/16 13:34:41;;;;;;;29.73;13.65;;;8.20;87.00;;;;;;5021522;28;20419;-74
2022/01/16 13:37:11;;;;;;;36.50;14.73;;;8.10;87.20;;;;;;5009793;28;20484;-73
2022/01/16 13:39:47;;;;;;;36.92;13.77;;;8.10;87.50;;;;;;5001115;28;20435;-73
2022/01/16 13:42:21;;;;;;;30.85;13.32;;;8.20;87.80;;;;;;5019615;28;20526;-73
2022/01/16 13:44:47;;;;;;;25.42;11.20;;;8.20;87.60;;;;;;5003341;28;20048;-74
2022/01/16 13:47:21;;;;;;;30.83;13.88;;;8.20;87.70;;;;;;5004179;28;20388;-73
2022/01/16 13:49:52;;;;;;;26.00;12.48;;;8.20;87.50;;;;;;5010467;28;20484;-74
2022/01/16 13:52:28;;;;;;;26.23;12.43;;;8.20;88.40;;;;;;5001808;28;20030;-75
2022/01/16 13:55:05;;;;;;;21.30;11.13;;;8.20;88.00;;;;;;5012566;28;20081;-72
2022/01/16 13:57:32;;;;;;;24.55;11.73;;;8.20;87.90;;;;;;5042485;28;20033;-73
2022/01/16 13:59:59;;;;;;;24.40;12.65;;;8.40;87.90;;;;;;5009128;28;20018;-75
2022/01/16 14:02:26;;;;;;;24.75;12.48;;;8.40;87.70;;;;;;5012024;28;20022;-74
2022/01/16 14:04:52;;;;;;;27.27;14.20;;;8.40;87.70;;;;;;5010748;28;20029;-74
2022/01/16 14:07:22;;;;;;;27.05;12.75;;;8.50;87.80;;;;;;5007757;28;20504;-75
2022/01/16 14:09:52;;;;;;;26.65;13.32;;;8.60;87.50;;;;;;5013321;28;20021;-75
2022/01/16 14:12:19;;;;;;;27.90;13.30;;;8.60;87.30;;;;;;5013577;28;20014;-75
2022/01/16 14:14:45;;;;;;;27.42;13.80;;;8.60;87.30;;;;;;5012817;28;20104;-76
2022/01/16 14:22:36;;;;;;;24.58;12.73;;;8.40;88.10;;;;;;5008515;28;20081;-75
2022/01/16 14:25:03;;;;;;;25.17;13.52;;;8.40;88.30;;;;;;5012872;28;20044;-76
2022/01/16 14:27:34;;;;;;;28.08;14.63;;;8.50;88.10;;;;;;5005767;28;20034;-75
2022/01/16 14:30:06;;;;;;;28.60;14.15;;;8.60;88.00;;;;;;5011633;28;20073;-74
2022/01/16 14:32:32;;;;;;;31.42;14.52;;;8.60;88.00;;;;;;5001890;28;20056;-74
2022/01/16 14:34:59;;;;;;;26.17;13.23;;;8.60;87.80;;;;;;5009683;28;20010;-74
2022/01/16 14:37:27;;;;;;;28.80;13.23;;;8.60;87.90;;;;;;5014386;28;20022;-75
2022/01/16 14:39:54;;;;;;;24.52;13.88;;;8.60;88.00;;;;;;5009014;28;20021;-74
2022/01/16 14:42:27;;;;;;;31.65;14.13;;;8.70;87.90;;;;;;5015295;28;20030;-75
2022/01/16 14:44:53;;;;;;;29.70;14.85;;;8.70;88.00;;;;;;5012407;28;20018;-73
2022/01/16 14:47:19;;;;;;;25.80;14.18;;;8.70;88.00;;;;;;5009078;28;20018;-74
2022/01/16 14:49:46;;;;;;;26.38;13.07;;;8.80;88.00;;;;;;5010828;28;20105;-74
2022/01/16 14:52:12;;;;;;;23.58;12.93;;;8.80;87.90;;;;;;5013325;28;20108;-74
2022/01/16 14:54:38;;;;;;;30.17;13.98;;;8.90;87.90;;;;;;5011805;28;20441;-74
2022/01/16 14:57:04;;;;;;;25.92;13.60;;;8.90;87.90;;;;;;5012191;28;20397;-77
2022/01/16 14:59:32;;;;;;;28.42;13.93;;;9.00;87.80;;;;;;5013259;28;20108;-74
2022/01/16 15:01:58;;;;;;;25.88;13.13;;;9.10;87.80;;;;;;5009562;28;20435;-74
2022/01/16 15:04:24;;;;;;;29.80;14.63;;;9.10;87.60;;;;;;5009056;28;20041;-74
2022/01/16 15:06:50;;;;;;;26.27;13.77;;;9.20;87.60;;;;;;4996739;28;20037;-74
2022/01/16 15:09:16;;;;;;;28.38;13.98;;;9.20;87.60;;;;;;5020593;28;20029;-73
2022/01/16 15:11:41;;;;;;;25.25;13.75;;;9.20;87.60;;;;;;5012957;28;20100;-74
2022/01/16 15:14:08;;;;;;;26.17;13.50;;;9.20;87.80;;;;;;5012433;28;20097;-74
2022/01/16 15:16:35;;;;;;;23.25;13.20;;;9.20;87.70;;;;;;5009608;28;20033;-73
2022/01/16 15:19:13;;;;;;;24.50;13.57;;;9.20;87.70;;;;;;5011451;28;20095;-75
2022/01/16 15:21:46;;;;;;;24.17;13.40;;;9.30;87.80;;;;;;5008938;28;20105;-75
2022/01/16 15:24:12;;;;;;;25.27;14.13;;;9.30;87.80;;;;;;5000554;28;20046;-75
2022/01/16 15:26:38;;;;;;;30.08;14.45;;;9.30;87.90;;;;;;5015487;28;20056;-75
2022/01/16 15:29:05;;;;;;;33.17;14.60;;;9.30;87.90;;;;;;5006875;28;20034;-75
2022/01/16 15:31:32;;;;;;;30.77;14.77;;;9.30;87.90;;;;;;5001990;28;20022;-75
2022/01/16 15:33:58;;;;;;;34.75;16.05;;;9.30;87.90;;;;;;5042199;28;20452;-75
2022/01/16 15:36:24;;;;;;;31.60;15.05;;;9.30;88.10;;;;;;5011027;28;20097;-75
2022/01/16 15:38:50;;;;;;;27.98;14.52;;;9.30;88.00;;;;;;5011579;28;20676;-78
2022/01/16 15:41:16;;;;;;;26.83;13.73;;;9.30;87.90;;;;;;5001848;28;20053;-76
2022/01/16 15:43:41;;;;;;;29.63;14.75;;;9.30;87.90;;;;;;4994503;28;20900;-77
2022/01/16 15:46:07;;;;;;;27.35;15.30;;;9.30;88.20;;;;;;5001755;28;20059;-77
2022/01/16 15:48:34;;;;;;;29.40;16.17;;;9.20;88.20;;;;;;5006408;28;20064;-77
2022/01/16 15:51:00;;;;;;;29.45;15.70;;;9.30;88.20;;;;;;5001933;28;20459;-77
2022/01/16 15:53:26;;;;;;;28.45;15.15;;;9.30;88.30;;;;;;5008474;28;20025;-84
2022/01/16 15:55:52;;;;;;;30.13;15.55;;;9.20;88.30;;;;;;4996660;28;20117;-82
2022/01/16 15:58:18;;;;;;;32.78;14.82;;;9.20;88.30;;;;;;4996892;28;20078;-82
2022/01/16 16:00:44;;;;;;;32.72;15.80;;;9.20;88.30;;;;;;4995219;28;20026;-86
2022/01/16 16:03:12;;;;;;;27.95;15.85;;;9.20;88.30;;;;;;4994992;28;20546;-80
2022/01/16 16:05:39;;;;;;;30.10;15.68;;;9.20;88.30;;;;;;5004010;28;20369;-80
2022/01/16 16:08:05;;;;;;;30.98;15.05;;;9.20;88.30;;;;;;5005824;28;20119;-83
2022/01/16 16:10:31;;;;;;;27.70;15.20;;;9.20;88.40;;;;;;5005044;28;20041;-81
2022/01/16 16:12:57;;;;;;;34.05;17.02;;;9.20;88.40;;;;;;5004025;28;20576;-86
2022/01/16 16:15:24;;;;;;;35.97;18.10;;;9.20;88.40;;;;;;5003827;28;20033;-83
2022/01/16 16:17:52;;;;;;;34.33;18.00;;;9.20;88.60;;;;;;5007145;28;20033;-83
2022/01/16 16:20:22;;;;;;;38.30;19.13;;;9.20;88.70;;;;;;4999084;28;20020;-77
2022/01/16 16:22:49;;;;;;;37.25;19.83;;;9.20;88.90;;;;;;5004874;28;20038;-78
2022/01/16 16:25:17;;;;;;;39.45;21.10;;;9.20;88.80;;;;;;5002359;28;20114;-80
2022/01/16 16:27:47;;;;;;;42.42;24.75;;;9.20;88.80;;;;;;5010554;28;20026;-79
2022/01/16 16:30:14;;;;;;;37.03;21.80;;;9.20;88.80;;;;;;5008103;28;20033;-78
2022/01/16 16:32:41;;;;;;;34.70;21.80;;;9.20;88.90;;;;;;5008242;28;20079;-78
2022/01/16 16:35:10;;;;;;;37.00;21.50;;;9.20;89.20;;;;;;4993666;28;21369;-78
2022/01/16 16:37:36;;;;;;;39.83;21.05;;;9.20;89.10;;;;;;4997461;28;20598;-79
2022/01/16 16:40:02;;;;;;;41.85;21.67;;;9.20;89.20;;;;;;5044985;28;20034;-79
2022/01/16 16:42:28;;;;;;;39.40;22.30;;;9.20;89.20;;;;;;5018451;28;20021;-79
2022/01/16 16:44:54;;;;;;;43.33;22.48;;;9.10;89.20;;;;;;5001787;28;20459;-78
2022/01/16 16:47:21;;;;;;;48.38;24.88;;;9.20;89.30;;;;;;5009705;28;20102;-79
2022/01/16 16:49:47;;;;;;;48.17;25.35;;;9.10;89.10;;;;;;5005274;28;20034;-79
2022/01/16 16:52:15;;;;;;;51.08;27.80;;;9.00;89.30;;;;;;5010554;28;20051;-78
2022/01/16 16:54:42;;;;;;;46.70;25.23;;;9.10;89.00;;;;;;5010800;28;20460;-79
2022/01/16 16:57:09;;;;;;;53.45;26.02;;;9.00;89.00;;;;;;5021102;28;20097;-79
2022/01/16 16:59:35;;;;;;;47.67;26.80;;;9.00;88.90;;;;;;5017760;28;20054;-79
2022/01/16 17:02:03;;;;;;;61.40;33.00;;;8.90;88.60;;;;;;5015780;28;20029;-79
2022/01/16 17:04:29;;;;;;;70.72;39.13;;;8.80;89.00;;;;;;5009960;28;20107;-79
2022/01/16 17:06:55;;;;;;;68.28;34.80;;;8.80;89.20;;;;;;5012803;28;20022;-78
2022/01/16 17:09:21;;;;;;;58.15;31.60;;;8.90;89.20;;;;;;5015207;28;20029;-79
2022/01/16 17:11:47;;;;;;;54.05;26.77;;;8.90;89.30;;;;;;5007578;28;20108;-79
2022/01/16 17:14:13;;;;;;;49.58;25.55;;;9.00;89.30;;;;;;5007299;28;20030;-79
2022/01/16 17:16:46;;;;;;;53.78;25.00;;;9.00;89.40;;;;;;5014683;28;20148;-79
2022/01/16 17:19:19;;;;;;;46.85;25.15;;;9.00;89.20;;;;;;5015201;28;20062;-80
2022/01/16 17:21:45;;;;;;;52.53;25.00;;;9.10;89.20;;;;;;5010615;28;20026;-79
2022/01/16 17:24:10;;;;;;;50.10;25.02;;;9.20;89.00;;;;;;5009837;28;20112;-79
2022/01/16 17:26:36;;;;;;;45.17;24.63;;;9.20;88.90;;;;;;5012143;28;20463;-77
2022/01/16 17:29:03;;;;;;;46.75;25.67;;;9.20;89.00;;;;;;5013075;28;20552;-78
2022/01/16 17:31:28;;;;;;;59.33;32.95;;;9.20;89.00;;;;;;5010315;28;20026;-79